sensor_id;sensor_type;location;lat;lon;timestamp;P1;durP1;ratioP1;P2;durP2;ratioP2
43793;SDS011;29414;44.798;20.366;2023-04-09T00:00:22;44.67;;;37.30;;
43793;SDS011;29414;44.798;20.366;2023-04-09T00:04:23;47.22;;;39.30;;
43793;SDS011;29414;44.798;20.366;2023-04-09T00:08:23;45.00;;;37.40;;
43793;SDS011;29414;44.798;20.366;2023-04-09T00:12:23;43.87;;;38.33;;
43793;SDS011;29414;44.798;20.366;2023-04-09T00:16:23;42.33;;;36.80;;
43793;SDS011;29414;44.798;20.366;2023-04-09T00:20:24;49.20;;;41.37;;
43793;SDS011;29414;44.798;20.366;2023-04-09T00:24:24;52.87;;;41.47;;
43793;SDS011;29414;44.798;20.366;2023-04-09T00:28:24;47.27;;;38.03;;
43793;SDS011;29414;44.798;20.366;2023-04-09T00:32:25;42.53;;;35.63;;
43793;SDS011;29414;44.798;20.366;2023-04-09T00:36:25;39.78;;;35.08;;
43793;SDS011;29414;44.798;20.366;2023-04-09T00:40:25;53.90;;;42.05;;
43793;SDS011;29414;44.798;20.366;2023-04-09T00:44:26;50.93;;;44.13;;
43793;SDS011;29414;44.798;20.366;2023-04-09T00:48:26;54.92;;;41.75;;
43793;SDS011;29414;44.798;20.366;2023-04-09T00:52:26;54.47;;;44.37;;
43793;SDS011;29414;44.798;20.366;2023-04-09T00:56:29;53.60;;;45.17;;
43793;SDS011;29414;44.798;20.366;2023-04-09T01:00:29;58.83;;;49.37;;
43793;SDS011;29414;44.798;20.366;2023-04-09T01:04:30;57.00;;;45.83;;
43793;SDS011;29414;44.798;20.366;2023-04-09T01:17:04;61.03;;;50.60;;
43793;SDS011;29414;44.798;20.366;2023-04-09T01:21:12;47.40;;;39.90;;
43793;SDS011;29414;44.798;20.366;2023-04-09T01:25:18;62.37;;;53.10;;
43793;SDS011;29414;44.798;20.366;2023-04-09T01:29:24;72.50;;;56.63;;
43793;SDS011;29414;44.798;20.366;2023-04-09T01:33:25;70.83;;;57.37;;
43793;SDS011;29414;44.798;20.366;2023-04-09T01:37:26;64.43;;;51.03;;
43793;SDS011;29414;44.798;20.366;2023-04-09T01:41:26;60.57;;;49.93;;
43793;SDS011;29414;44.798;20.366;2023-04-09T01:45:26;48.20;;;41.87;;
43793;SDS011;29414;44.798;20.366;2023-04-09T01:49:27;53.35;;;44.83;;
43793;SDS011;29414;44.798;20.366;2023-04-09T01:53:27;64.80;;;47.60;;
43793;SDS011;29414;44.798;20.366;2023-04-09T01:57:29;48.80;;;40.50;;
43793;SDS011;29414;44.798;20.366;2023-04-09T02:01:35;54.15;;;42.72;;
43793;SDS011;29414;44.798;20.366;2023-04-09T02:05:37;43.97;;;39.23;;
43793;SDS011;29414;44.798;20.366;2023-04-09T02:09:39;64.00;;;54.93;;
43793;SDS011;29414;44.798;20.366;2023-04-09T02:13:40;54.90;;;45.00;;
43793;SDS011;29414;44.798;20.366;2023-04-09T02:17:42;53.37;;;43.00;;
43793;SDS011;29414;44.798;20.366;2023-04-09T02:21:42;45.97;;;38.53;;
43793;SDS011;29414;44.798;20.366;2023-04-09T02:25:43;45.03;;;36.77;;
43793;SDS011;29414;44.798;20.366;2023-04-09T02:29:43;47.67;;;40.73;;
43793;SDS011;29414;44.798;20.366;2023-04-09T02:33:43;54.88;;;43.05;;
43793;SDS011;29414;44.798;20.366;2023-04-09T02:37:46;54.23;;;43.40;;
43793;SDS011;29414;44.798;20.366;2023-04-09T02:41:46;54.83;;;45.53;;
43793;SDS011;29414;44.798;20.366;2023-04-09T02:45:46;51.08;;;42.47;;
43793;SDS011;29414;44.798;20.366;2023-04-09T02:49:47;56.17;;;46.53;;
43793;SDS011;29414;44.798;20.366;2023-04-09T02:53:47;51.65;;;41.38;;
43793;SDS011;29414;44.798;20.366;2023-04-09T02:57:47;49.60;;;42.67;;
43793;SDS011;29414;44.798;20.366;2023-04-09T03:01:49;53.57;;;42.90;;
43793;SDS011;29414;44.798;20.366;2023-04-09T03:05:50;54.60;;;43.23;;
43793;SDS011;29414;44.798;20.366;2023-04-09T03:09:50;48.50;;;40.70;;
43793;SDS011;29414;44.798;20.366;2023-04-09T03:13:50;49.70;;;40.57;;
43793;SDS011;29414;44.798;20.366;2023-04-09T03:17:50;48.50;;;39.65;;
43793;SDS011;29414;44.798;20.366;2023-04-09T03:21:51;46.20;;;38.83;;
43793;SDS011;29414;44.798;20.366;2023-04-09T03:26:03;47.13;;;38.15;;
43793;SDS011;29414;44.798;20.366;2023-04-09T03:30:04;45.13;;;39.37;;
43793;SDS011;29414;44.798;20.366;2023-04-09T03:34:04;43.10;;;37.70;;
43793;SDS011;29414;44.798;20.366;2023-04-09T03:38:05;42.73;;;36.77;;
43793;SDS011;29414;44.798;20.366;2023-04-09T03:42:05;38.47;;;34.33;;
43793;SDS011;29414;44.798;20.366;2023-04-09T03:46:12;52.20;;;43.83;;
43793;SDS011;29414;44.798;20.366;2023-04-09T03:50:12;59.27;;;47.30;;
43793;SDS011;29414;44.798;20.366;2023-04-09T03:54:12;57.72;;;45.80;;
43793;SDS011;29414;44.798;20.366;2023-04-09T03:58:13;52.08;;;42.92;;
43793;SDS011;29414;44.798;20.366;2023-04-09T04:02:13;56.17;;;47.67;;
43793;SDS011;29414;44.798;20.366;2023-04-09T04:06:13;56.78;;;45.85;;
43793;SDS011;29414;44.798;20.366;2023-04-09T04:10:13;53.70;;;44.93;;
43793;SDS011;29414;44.798;20.366;2023-04-09T04:14:14;53.33;;;44.87;;
43793;SDS011;29414;44.798;20.366;2023-04-09T04:18:14;52.03;;;45.63;;
43793;SDS011;29414;44.798;20.366;2023-04-09T04:22:15;49.70;;;43.83;;
43793;SDS011;29414;44.798;20.366;2023-04-09T04:26:15;52.65;;;44.10;;
43793;SDS011;29414;44.798;20.366;2023-04-09T04:30:15;48.47;;;40.47;;
43793;SDS011;29414;44.798;20.366;2023-04-09T04:34:15;51.45;;;42.90;;
43793;SDS011;29414;44.798;20.366;2023-04-09T04:38:15;55.58;;;41.35;;
43793;SDS011;29414;44.798;20.366;2023-04-09T04:42:16;52.33;;;41.15;;
43793;SDS011;29414;44.798;20.366;2023-04-09T04:46:16;51.50;;;41.77;;
43793;SDS011;29414;44.798;20.366;2023-04-09T04:50:16;61.07;;;46.63;;
43793;SDS011;29414;44.798;20.366;2023-04-09T04:54:19;49.80;;;42.33;;
43793;SDS011;29414;44.798;20.366;2023-04-09T04:58:20;52.07;;;43.80;;
43793;SDS011;29414;44.798;20.366;2023-04-09T05:02:20;56.83;;;45.97;;
43793;SDS011;29414;44.798;20.366;2023-04-09T05:06:20;50.97;;;42.67;;
43793;SDS011;29414;44.798;20.366;2023-04-09T05:10:20;105.60;;;40.47;;
43793;SDS011;29414;44.798;20.366;2023-04-09T05:14:23;100.72;;;41.80;;
43793;SDS011;29414;44.798;20.366;2023-04-09T05:18:24;226.07;;;47.17;;
43793;SDS011;29414;44.798;20.366;2023-04-09T05:22:24;45.17;;;39.37;;
43793;SDS011;29414;44.798;20.366;2023-04-09T05:26:24;40.85;;;36.47;;
43793;SDS011;29414;44.798;20.366;2023-04-09T05:30:25;45.77;;;37.10;;
43793;SDS011;29414;44.798;20.366;2023-04-09T05:34:26;41.53;;;36.53;;
43793;SDS011;29414;44.798;20.366;2023-04-09T05:38:26;74.77;;;44.67;;
43793;SDS011;29414;44.798;20.366;2023-04-09T05:42:26;61.80;;;41.47;;
43793;SDS011;29414;44.798;20.366;2023-04-09T05:46:27;67.18;;;42.90;;
43793;SDS011;29414;44.798;20.366;2023-04-09T05:50:27;54.13;;;42.30;;
43793;SDS011;29414;44.798;20.366;2023-04-09T05:54:28;77.53;;;48.55;;
43793;SDS011;29414;44.798;20.366;2023-04-09T05:58:30;62.07;;;44.03;;
43793;SDS011;29414;44.798;20.366;2023-04-09T06:02:31;61.27;;;45.53;;
43793;SDS011;29414;44.798;20.366;2023-04-09T06:06:31;78.57;;;47.55;;
43793;SDS011;29414;44.798;20.366;2023-04-09T06:10:31;109.37;;;71.67;;
43793;SDS011;29414;44.798;20.366;2023-04-09T06:14:31;89.37;;;51.73;;
43793;SDS011;29414;44.798;20.366;2023-04-09T06:18:32;99.40;;;49.80;;
43793;SDS011;29414;44.798;20.366;2023-04-09T06:22:32;62.63;;;47.10;;
43793;SDS011;29414;44.798;20.366;2023-04-09T06:26:32;67.97;;;49.55;;
43793;SDS011;29414;44.798;20.366;2023-04-09T06:30:32;74.87;;;49.30;;
43793;SDS011;29414;44.798;20.366;2023-04-09T06:34:35;74.43;;;53.40;;
43793;SDS011;29414;44.798;20.366;2023-04-09T06:38:35;100.80;;;52.08;;
43793;SDS011;29414;44.798;20.366;2023-04-09T06:42:36;92.15;;;56.50;;
43793;SDS011;29414;44.798;20.366;2023-04-09T06:46:36;116.03;;;56.87;;
43793;SDS011;29414;44.798;20.366;2023-04-09T06:50:36;108.07;;;58.87;;
43793;SDS011;29414;44.798;20.366;2023-04-09T06:54:37;78.73;;;55.53;;
43793;SDS011;29414;44.798;20.366;2023-04-09T06:58:37;82.07;;;54.55;;
43793;SDS011;29414;44.798;20.366;2023-04-09T07:02:37;88.43;;;56.47;;
43793;SDS011;29414;44.798;20.366;2023-04-09T07:06:37;95.90;;;57.40;;
43793;SDS011;29414;44.798;20.366;2023-04-09T07:10:39;91.07;;;58.70;;
43793;SDS011;29414;44.798;20.366;2023-04-09T07:14:39;89.77;;;56.87;;
43793;SDS011;29414;44.798;20.366;2023-04-09T07:18:40;85.38;;;56.75;;
43793;SDS011;29414;44.798;20.366;2023-04-09T07:22:40;85.30;;;57.53;;
43793;SDS011;29414;44.798;20.366;2023-04-09T07:26:40;86.80;;;59.67;;
43793;SDS011;29414;44.798;20.366;2023-04-09T07:30:41;89.83;;;57.50;;
43793;SDS011;29414;44.798;20.366;2023-04-09T07:34:42;81.57;;;56.07;;
43793;SDS011;29414;44.798;20.366;2023-04-09T07:38:42;83.00;;;57.37;;
43793;SDS011;29414;44.798;20.366;2023-04-09T07:42:43;90.33;;;57.63;;
43793;SDS011;29414;44.798;20.366;2023-04-09T07:46:43;80.97;;;56.53;;
43793;SDS011;29414;44.798;20.366;2023-04-09T07:50:44;74.72;;;53.50;;
43793;SDS011;29414;44.798;20.366;2023-04-09T07:54:44;73.30;;;53.23;;
43793;SDS011;29414;44.798;20.366;2023-04-09T07:58:44;75.67;;;51.30;;
43793;SDS011;29414;44.798;20.366;2023-04-09T08:02:45;70.33;;;52.77;;
43793;SDS011;29414;44.798;20.366;2023-04-09T08:06:45;74.43;;;54.47;;
43793;SDS011;29414;44.798;20.366;2023-04-09T08:10:49;72.33;;;52.33;;
43793;SDS011;29414;44.798;20.366;2023-04-09T08:14:49;64.03;;;47.85;;
43793;SDS011;29414;44.798;20.366;2023-04-09T08:18:50;71.57;;;51.37;;
43793;SDS011;29414;44.798;20.366;2023-04-09T08:22:50;75.22;;;52.65;;
43793;SDS011;29414;44.798;20.366;2023-04-09T08:26:50;63.93;;;49.43;;
43793;SDS011;29414;44.798;20.366;2023-04-09T08:30:50;65.43;;;48.50;;
43793;SDS011;29414;44.798;20.366;2023-04-09T08:34:51;70.10;;;51.00;;
43793;SDS011;29414;44.798;20.366;2023-04-09T08:38:54;65.18;;;51.13;;
43793;SDS011;29414;44.798;20.366;2023-04-09T08:42:55;63.93;;;48.10;;
43793;SDS011;29414;44.798;20.366;2023-04-09T08:46:56;56.37;;;46.47;;
43793;SDS011;29414;44.798;20.366;2023-04-09T08:50:56;56.47;;;46.40;;
43793;SDS011;29414;44.798;20.366;2023-04-09T08:54:56;50.90;;;42.13;;
43793;SDS011;29414;44.798;20.366;2023-04-09T08:58:56;51.33;;;42.75;;
43793;SDS011;29414;44.798;20.366;2023-04-09T09:03:07;49.23;;;43.27;;
43793;SDS011;29414;44.798;20.366;2023-04-09T09:07:07;48.43;;;40.93;;
43793;SDS011;29414;44.798;20.366;2023-04-09T09:11:08;46.22;;;40.80;;
43793;SDS011;29414;44.798;20.366;2023-04-09T09:15:24;45.05;;;40.15;;
43793;SDS011;29414;44.798;20.366;2023-04-09T09:19:28;45.73;;;38.17;;
43793;SDS011;29414;44.798;20.366;2023-04-09T09:23:35;45.13;;;38.93;;
43793;SDS011;29414;44.798;20.366;2023-04-09T09:31:46;38.40;;;34.50;;
43793;SDS011;29414;44.798;20.366;2023-04-09T09:35:51;37.90;;;34.07;;
43793;SDS011;29414;44.798;20.366;2023-04-09T09:39:53;32.13;;;28.67;;
43793;SDS011;29414;44.798;20.366;2023-04-09T09:43:53;32.10;;;28.43;;
43793;SDS011;29414;44.798;20.366;2023-04-09T09:47:53;28.77;;;25.77;;
43793;SDS011;29414;44.798;20.366;2023-04-09T09:51:55;30.53;;;27.33;;
43793;SDS011;29414;44.798;20.366;2023-04-09T09:55:56;30.20;;;27.27;;
43793;SDS011;29414;44.798;20.366;2023-04-09T09:59:59;26.03;;;23.73;;
43793;SDS011;29414;44.798;20.366;2023-04-09T10:04:00;26.20;;;23.27;;
43793;SDS011;29414;44.798;20.366;2023-04-09T10:08:01;24.57;;;22.17;;
43793;SDS011;29414;44.798;20.366;2023-04-09T10:12:03;25.30;;;22.80;;
43793;SDS011;29414;44.798;20.366;2023-04-09T10:16:05;24.65;;;22.30;;
43793;SDS011;29414;44.798;20.366;2023-04-09T10:20:08;23.95;;;21.65;;
43793;SDS011;29414;44.798;20.366;2023-04-09T10:24:10;25.25;;;22.88;;
43793;SDS011;29414;44.798;20.366;2023-04-09T10:28:14;26.98;;;24.25;;
43793;SDS011;29414;44.798;20.366;2023-04-09T10:32:19;23.10;;;20.90;;
43793;SDS011;29414;44.798;20.366;2023-04-09T10:36:20;23.47;;;21.17;;
43793;SDS011;29414;44.798;20.366;2023-04-09T10:40:23;25.10;;;22.77;;
43793;SDS011;29414;44.798;20.366;2023-04-09T10:44:25;24.34;;;22.02;;
43793;SDS011;29414;44.798;20.366;2023-04-09T10:48:32;23.35;;;21.08;;
43793;SDS011;29414;44.798;20.366;2023-04-09T10:52:32;24.10;;;21.80;;
43793;SDS011;29414;44.798;20.366;2023-04-09T10:56:34;24.25;;;21.85;;
43793;SDS011;29414;44.798;20.366;2023-04-09T11:00:38;22.90;;;20.75;;
43793;SDS011;29414;44.798;20.366;2023-04-09T11:08:43;21.77;;;19.83;;
43793;SDS011;29414;44.798;20.366;2023-04-09T11:12:45;19.10;;;17.30;;
43793;SDS011;29414;44.798;20.366;2023-04-09T11:16:48;21.60;;;19.60;;
43793;SDS011;29414;44.798;20.366;2023-04-09T11:20:49;22.85;;;20.52;;
43793;SDS011;29414;44.798;20.366;2023-04-09T11:24:52;22.42;;;20.17;;
43793;SDS011;29414;44.798;20.366;2023-04-09T11:28:54;23.75;;;21.30;;
43793;SDS011;29414;44.798;20.366;2023-04-09T11:32:55;25.83;;;23.08;;
43793;SDS011;29414;44.798;20.366;2023-04-09T11:36:55;25.17;;;22.42;;
43793;SDS011;29414;44.798;20.366;2023-04-09T11:40:57;24.42;;;22.23;;
43793;SDS011;29414;44.798;20.366;2023-04-09T11:44:58;22.25;;;20.23;;
43793;SDS011;29414;44.798;20.366;2023-04-09T11:48:58;23.38;;;21.23;;
43793;SDS011;29414;44.798;20.366;2023-04-09T11:52:59;23.40;;;21.20;;
43793;SDS011;29414;44.798;20.366;2023-04-09T11:57:00;25.87;;;23.30;;
43793;SDS011;29414;44.798;20.366;2023-04-09T12:01:02;27.17;;;24.57;;
43793;SDS011;29414;44.798;20.366;2023-04-09T12:05:02;24.23;;;22.03;;
43793;SDS011;29414;44.798;20.366;2023-04-09T12:09:03;25.93;;;23.30;;
43793;SDS011;29414;44.798;20.366;2023-04-09T12:13:07;24.00;;;21.70;;
43793;SDS011;29414;44.798;20.366;2023-04-09T12:17:09;29.27;;;26.42;;
43793;SDS011;29414;44.798;20.366;2023-04-09T12:21:09;27.57;;;24.97;;
43793;SDS011;29414;44.798;20.366;2023-04-09T12:25:09;25.53;;;23.23;;
43793;SDS011;29414;44.798;20.366;2023-04-09T12:29:10;24.67;;;22.17;;
43793;SDS011;29414;44.798;20.366;2023-04-09T12:33:10;24.90;;;22.60;;
43793;SDS011;29414;44.798;20.366;2023-04-09T12:37:11;28.47;;;25.53;;
43793;SDS011;29414;44.798;20.366;2023-04-09T12:41:11;25.30;;;23.00;;
43793;SDS011;29414;44.798;20.366;2023-04-09T12:45:16;25.23;;;22.83;;
43793;SDS011;29414;44.798;20.366;2023-04-09T12:49:16;23.87;;;21.57;;
43793;SDS011;29414;44.798;20.366;2023-04-09T12:53:17;23.20;;;21.10;;
43793;SDS011;29414;44.798;20.366;2023-04-09T12:57:17;23.33;;;21.23;;
43793;SDS011;29414;44.798;20.366;2023-04-09T13:01:17;22.83;;;20.77;;
43793;SDS011;29414;44.798;20.366;2023-04-09T13:05:20;20.43;;;18.63;;
43793;SDS011;29414;44.798;20.366;2023-04-09T13:09:23;20.83;;;18.92;;
43793;SDS011;29414;44.798;20.366;2023-04-09T13:13:24;23.30;;;21.10;;
43793;SDS011;29414;44.798;20.366;2023-04-09T13:17:25;30.23;;;20.53;;
43793;SDS011;29414;44.798;20.366;2023-04-09T13:21:25;19.57;;;17.67;;
43793;SDS011;29414;44.798;20.366;2023-04-09T13:25:26;21.43;;;19.13;;
43793;SDS011;29414;44.798;20.366;2023-04-09T13:29:26;23.03;;;20.83;;
43793;SDS011;29414;44.798;20.366;2023-04-09T13:33:28;20.33;;;18.43;;
43793;SDS011;29414;44.798;20.366;2023-04-09T13:37:30;18.73;;;16.90;;
43793;SDS011;29414;44.798;20.366;2023-04-09T13:41:31;18.88;;;17.17;;
43793;SDS011;29414;44.798;20.366;2023-04-09T13:45:31;20.47;;;18.47;;
43793;SDS011;29414;44.798;20.366;2023-04-09T13:49:31;20.73;;;18.73;;
43793;SDS011;29414;44.798;20.366;2023-04-09T13:53:31;18.14;;;16.54;;
43793;SDS011;29414;44.798;20.366;2023-04-09T13:57:32;18.37;;;16.20;;
43793;SDS011;29414;44.798;20.366;2023-04-09T14:01:32;17.48;;;15.88;;
43793;SDS011;29414;44.798;20.366;2023-04-09T14:05:33;19.83;;;17.73;;
43793;SDS011;29414;44.798;20.366;2023-04-09T14:09:36;19.90;;;18.00;;
43793;SDS011;29414;44.798;20.366;2023-04-09T14:13:36;21.57;;;19.30;;
43793;SDS011;29414;44.798;20.366;2023-04-09T14:17:37;18.20;;;16.57;;
43793;SDS011;29414;44.798;20.366;2023-04-09T14:21:39;21.27;;;19.17;;
43793;SDS011;29414;44.798;20.366;2023-04-09T14:25:39;21.23;;;19.20;;
43793;SDS011;29414;44.798;20.366;2023-04-09T14:29:39;20.97;;;18.97;;
43793;SDS011;29414;44.798;20.366;2023-04-09T14:33:40;19.23;;;17.57;;
43793;SDS011;29414;44.798;20.366;2023-04-09T14:37:40;20.73;;;18.73;;
43793;SDS011;29414;44.798;20.366;2023-04-09T14:41:41;19.93;;;18.03;;
43793;SDS011;29414;44.798;20.366;2023-04-09T14:45:41;22.67;;;20.42;;
43793;SDS011;29414;44.798;20.366;2023-04-09T14:49:41;21.95;;;20.00;;
43793;SDS011;29414;44.798;20.366;2023-04-09T14:53:41;22.60;;;20.50;;
43793;SDS011;29414;44.798;20.366;2023-04-09T14:57:44;23.97;;;21.50;;
43793;SDS011;29414;44.798;20.366;2023-04-09T15:01:44;22.03;;;20.10;;
43793;SDS011;29414;44.798;20.366;2023-04-09T15:05:45;26.20;;;23.60;;
43793;SDS011;29414;44.798;20.366;2023-04-09T15:09:46;25.83;;;23.10;;
43793;SDS011;29414;44.798;20.366;2023-04-09T15:13:47;32.08;;;24.65;;
43793;SDS011;29414;44.798;20.366;2023-04-09T15:17:47;25.83;;;23.23;;
43793;SDS011;29414;44.798;20.366;2023-04-09T15:21:47;24.46;;;22.06;;
43793;SDS011;29414;44.798;20.366;2023-04-09T15:25:47;25.07;;;22.57;;
43793;SDS011;29414;44.798;20.366;2023-04-09T15:29:51;23.93;;;21.63;;
43793;SDS011;29414;44.798;20.366;2023-04-09T15:33:51;24.43;;;22.00;;
43793;SDS011;29414;44.798;20.366;2023-04-09T15:37:51;26.15;;;23.45;;
43793;SDS011;29414;44.798;20.366;2023-04-09T15:41:51;27.43;;;24.80;;
43793;SDS011;29414;44.798;20.366;2023-04-09T15:45:52;26.33;;;23.87;;
43793;SDS011;29414;44.798;20.366;2023-04-09T15:49:52;27.93;;;25.30;;
43793;SDS011;29414;44.798;20.366;2023-04-09T15:53:54;27.30;;;24.73;;
43793;SDS011;29414;44.798;20.366;2023-04-09T15:57:54;27.63;;;24.83;;
43793;SDS011;29414;44.798;20.366;2023-04-09T16:01:54;24.93;;;22.50;;
43793;SDS011;29414;44.798;20.366;2023-04-09T16:05:55;22.90;;;20.70;;
43793;SDS011;29414;44.798;20.366;2023-04-09T16:10:00;23.88;;;21.48;;
43793;SDS011;29414;44.798;20.366;2023-04-09T16:14:01;25.00;;;22.50;;
43793;SDS011;29414;44.798;20.366;2023-04-09T16:18:01;23.25;;;20.92;;
43793;SDS011;29414;44.798;20.366;2023-04-09T16:22:01;22.80;;;20.50;;
43793;SDS011;29414;44.798;20.366;2023-04-09T16:26:02;24.30;;;21.90;;
43793;SDS011;29414;44.798;20.366;2023-04-09T16:30:03;24.67;;;22.30;;
43793;SDS011;29414;44.798;20.366;2023-04-09T16:34:03;25.57;;;22.97;;
43793;SDS011;29414;44.798;20.366;2023-04-09T16:38:04;24.27;;;22.07;;
43793;SDS011;29414;44.798;20.366;2023-04-09T16:42:05;24.43;;;22.07;;
43793;SDS011;29414;44.798;20.366;2023-04-09T16:46:06;21.47;;;19.27;;
43793;SDS011;29414;44.798;20.366;2023-04-09T16:50:06;21.60;;;19.67;;
43793;SDS011;29414;44.798;20.366;2023-04-09T16:54:09;20.13;;;18.13;;
43793;SDS011;29414;44.798;20.366;2023-04-09T16:58:09;20.37;;;18.60;;
43793;SDS011;29414;44.798;20.366;2023-04-09T17:02:10;20.70;;;18.77;;
43793;SDS011;29414;44.798;20.366;2023-04-09T17:06:10;21.20;;;19.13;;
43793;SDS011;29414;44.798;20.366;2023-04-09T17:10:10;21.73;;;19.63;;
43793;SDS011;29414;44.798;20.366;2023-04-09T17:14:11;20.80;;;18.70;;
43793;SDS011;29414;44.798;20.366;2023-04-09T17:18:14;20.07;;;18.17;;
43793;SDS011;29414;44.798;20.366;2023-04-09T17:22:14;18.80;;;16.90;;
43793;SDS011;29414;44.798;20.366;2023-04-09T17:26:16;19.80;;;17.80;;
43793;SDS011;29414;44.798;20.366;2023-04-09T17:30:18;20.37;;;18.50;;
43793;SDS011;29414;44.798;20.366;2023-04-09T17:34:21;20.37;;;18.30;;
43793;SDS011;29414;44.798;20.366;2023-04-09T17:38:22;21.57;;;19.40;;
43793;SDS011;29414;44.798;20.366;2023-04-09T17:42:26;25.10;;;22.37;;
43793;SDS011;29414;44.798;20.366;2023-04-09T17:46:31;27.33;;;22.47;;
43793;SDS011;29414;44.798;20.366;2023-04-09T17:50:31;24.30;;;21.57;;
43793;SDS011;29414;44.798;20.366;2023-04-09T17:54:31;26.45;;;22.83;;
43793;SDS011;29414;44.798;20.366;2023-04-09T17:58:33;25.40;;;22.40;;
43793;SDS011;29414;44.798;20.366;2023-04-09T18:02:33;25.52;;;22.85;;
43793;SDS011;29414;44.798;20.366;2023-04-09T18:06:33;26.50;;;23.80;;
43793;SDS011;29414;44.798;20.366;2023-04-09T18:10:34;26.58;;;23.88;;
43793;SDS011;29414;44.798;20.366;2023-04-09T18:14:34;24.33;;;21.93;;
43793;SDS011;29414;44.798;20.366;2023-04-09T18:18:34;26.20;;;23.60;;
43793;SDS011;29414;44.798;20.366;2023-04-09T18:22:34;28.23;;;25.07;;
43793;SDS011;29414;44.798;20.366;2023-04-09T18:26:35;27.43;;;24.70;;
43793;SDS011;29414;44.798;20.366;2023-04-09T18:30:35;26.80;;;24.10;;
43793;SDS011;29414;44.798;20.366;2023-04-09T18:34:37;26.67;;;24.07;;
43793;SDS011;29414;44.798;20.366;2023-04-09T18:38:38;28.60;;;25.65;;
43793;SDS011;29414;44.798;20.366;2023-04-09T18:42:38;28.00;;;25.00;;
43793;SDS011;29414;44.798;20.366;2023-04-09T18:46:38;27.53;;;24.63;;
43793;SDS011;29414;44.798;20.366;2023-04-09T18:50:38;27.83;;;25.03;;
43793;SDS011;29414;44.798;20.366;2023-04-09T18:54:39;31.83;;;28.53;;
43793;SDS011;29414;44.798;20.366;2023-04-09T18:58:39;30.58;;;27.33;;
43793;SDS011;29414;44.798;20.366;2023-04-09T19:02:40;29.83;;;26.83;;
43793;SDS011;29414;44.798;20.366;2023-04-09T19:06:40;31.20;;;28.05;;
43793;SDS011;29414;44.798;20.366;2023-04-09T19:10:40;30.77;;;27.58;;
43793;SDS011;29414;44.798;20.366;2023-04-09T19:14:41;32.13;;;28.83;;
43793;SDS011;29414;44.798;20.366;2023-04-09T19:18:41;34.06;;;30.56;;
43793;SDS011;29414;44.798;20.366;2023-04-09T19:22:44;31.85;;;28.63;;
43793;SDS011;29414;44.798;20.366;2023-04-09T19:26:45;33.60;;;30.23;;
43793;SDS011;29414;44.798;20.366;2023-04-09T19:30:46;34.70;;;31.00;;
43793;SDS011;29414;44.798;20.366;2023-04-09T19:34:46;32.73;;;29.30;;
43793;SDS011;29414;44.798;20.366;2023-04-09T19:38:46;34.63;;;31.17;;
43793;SDS011;29414;44.798;20.366;2023-04-09T19:42:46;35.47;;;31.98;;
43793;SDS011;29414;44.798;20.366;2023-04-09T19:46:46;36.45;;;32.65;;
43793;SDS011;29414;44.798;20.366;2023-04-09T19:50:47;33.20;;;29.74;;
43793;SDS011;29414;44.798;20.366;2023-04-09T19:54:51;34.80;;;31.13;;
43793;SDS011;29414;44.798;20.366;2023-04-09T19:58:52;37.53;;;33.47;;
43793;SDS011;29414;44.798;20.366;2023-04-09T20:02:52;37.22;;;33.28;;
43793;SDS011;29414;44.798;20.366;2023-04-09T20:06:52;35.70;;;32.03;;
43793;SDS011;29414;44.798;20.366;2023-04-09T20:10:53;36.57;;;32.87;;
43793;SDS011;29414;44.798;20.366;2023-04-09T20:14:57;35.97;;;32.23;;
43793;SDS011;29414;44.798;20.366;2023-04-09T20:18:57;37.87;;;33.67;;
43793;SDS011;29414;44.798;20.366;2023-04-09T20:22:57;38.60;;;34.55;;
43793;SDS011;29414;44.798;20.366;2023-04-09T20:26:58;43.97;;;37.17;;
43793;SDS011;29414;44.798;20.366;2023-04-09T20:31:00;39.90;;;35.13;;
43793;SDS011;29414;44.798;20.366;2023-04-09T20:35:03;37.73;;;33.70;;
43793;SDS011;29414;44.798;20.366;2023-04-09T20:39:04;37.73;;;33.77;;
43793;SDS011;29414;44.798;20.366;2023-04-09T20:43:04;37.20;;;33.20;;
43793;SDS011;29414;44.798;20.366;2023-04-09T20:47:05;40.40;;;36.13;;
43793;SDS011;29414;44.798;20.366;2023-04-09T20:51:09;39.00;;;35.03;;
43793;SDS011;29414;44.798;20.366;2023-04-09T20:55:10;38.47;;;34.17;;
43793;SDS011;29414;44.798;20.366;2023-04-09T20:59:10;38.93;;;34.83;;
43793;SDS011;29414;44.798;20.366;2023-04-09T21:03:10;39.40;;;35.37;;
43793;SDS011;29414;44.798;20.366;2023-04-09T21:07:13;39.33;;;34.63;;
43793;SDS011;29414;44.798;20.366;2023-04-09T21:11:13;40.33;;;36.00;;
43793;SDS011;29414;44.798;20.366;2023-04-09T21:15:14;40.53;;;36.13;;
43793;SDS011;29414;44.798;20.366;2023-04-09T21:19:14;38.93;;;34.73;;
43793;SDS011;29414;44.798;20.366;2023-04-09T21:23:15;39.60;;;35.37;;
43793;SDS011;29414;44.798;20.366;2023-04-09T21:27:15;37.50;;;33.50;;
43793;SDS011;29414;44.798;20.366;2023-04-09T21:31:16;39.42;;;34.53;;
43793;SDS011;29414;44.798;20.366;2023-04-09T21:35:16;38.93;;;34.53;;
43793;SDS011;29414;44.798;20.366;2023-04-09T21:39:16;38.77;;;34.30;;
43793;SDS011;29414;44.798;20.366;2023-04-09T21:43:16;37.88;;;33.78;;
43793;SDS011;29414;44.798;20.366;2023-04-09T21:47:17;34.55;;;30.85;;
43793;SDS011;29414;44.798;20.366;2023-04-09T21:51:17;38.93;;;34.83;;
43793;SDS011;29414;44.798;20.366;2023-04-09T21:55:17;34.63;;;31.15;;
43793;SDS011;29414;44.798;20.366;2023-04-09T21:59:18;36.23;;;32.23;;
43793;SDS011;29414;44.798;20.366;2023-04-09T22:03:18;36.95;;;32.97;;
43793;SDS011;29414;44.798;20.366;2023-04-09T22:07:18;36.43;;;32.53;;
43793;SDS011;29414;44.798;20.366;2023-04-09T22:11:19;34.23;;;30.63;;
43793;SDS011;29414;44.798;20.366;2023-04-09T22:15:22;37.70;;;32.67;;
43793;SDS011;29414;44.798;20.366;2023-04-09T22:19:23;37.30;;;33.40;;
43793;SDS011;29414;44.798;20.366;2023-04-09T22:23:24;36.30;;;32.50;;
43793;SDS011;29414;44.798;20.366;2023-04-09T22:27:25;36.90;;;32.97;;
43793;SDS011;29414;44.798;20.366;2023-04-09T22:31:25;36.63;;;32.73;;
43793;SDS011;29414;44.798;20.366;2023-04-09T22:35:26;35.70;;;32.07;;
43793;SDS011;29414;44.798;20.366;2023-04-09T22:39:26;37.72;;;33.72;;
43793;SDS011;29414;44.798;20.366;2023-04-09T22:43:26;38.35;;;32.45;;
43793;SDS011;29414;44.798;20.366;2023-04-09T22:47:26;36.10;;;32.20;;
43793;SDS011;29414;44.798;20.366;2023-04-09T22:51:27;39.80;;;33.70;;
43793;SDS011;29414;44.798;20.366;2023-04-09T22:55:28;36.53;;;32.57;;
43793;SDS011;29414;44.798;20.366;2023-04-09T22:59:28;41.97;;;34.63;;
43793;SDS011;29414;44.798;20.366;2023-04-09T23:03:31;39.53;;;35.22;;
43793;SDS011;29414;44.798;20.366;2023-04-09T23:07:31;38.87;;;34.63;;
43793;SDS011;29414;44.798;20.366;2023-04-09T23:11:32;39.67;;;35.47;;
43793;SDS011;29414;44.798;20.366;2023-04-09T23:15:32;39.28;;;35.00;;
43793;SDS011;29414;44.798;20.366;2023-04-09T23:19:32;39.20;;;33.90;;
43793;SDS011;29414;44.798;20.366;2023-04-09T23:23:33;39.63;;;33.87;;